createdAt,value
2023-03-26T00:01:46.768Z,97851.19
2023-03-26T00:04:19.767Z,97846.38
2023-03-26T00:06:50.480Z,97848.85
2023-03-26T00:09:18.868Z,97845.58
2023-03-26T00:11:52.753Z,97847.44
2023-03-26T00:14:25.294Z,97843.52
2023-03-26T00:16:54.712Z,97836.77
2023-03-26T00:19:23.655Z,97835.77
2023-03-26T00:21:53.390Z,97833.98
2023-03-26T00:24:21.770Z,97832.90
2023-03-26T00:26:53.649Z,97832.76
2023-03-26T00:29:24.816Z,97828.64
2023-03-26T00:31:53.372Z,97826.23
2023-03-26T00:34:25.050Z,97827.81
2023-03-26T00:37:02.679Z,97828.74
2023-03-26T00:39:35.839Z,97830.48
2023-03-26T00:42:08.397Z,97829.66
2023-03-26T00:44:36.558Z,97830.86
2023-03-26T00:47:05.735Z,97833.80
2023-03-26T00:49:35.438Z,97835.83
2023-03-26T00:52:03.897Z,97832.86
2023-03-26T00:54:32.627Z,97831.23
2023-03-26T00:57:07.031Z,97834.70
2023-03-26T00:59:36.283Z,97833.02
2023-03-26T01:02:04.790Z,97831.30
2023-03-26T01:04:35.321Z,97839.55
2023-03-26T01:07:10.350Z,97841.88
2023-03-26T01:09:43.013Z,97836.38
2023-03-26T01:12:17.157Z,97834.56
2023-03-26T01:14:46.839Z,97831.24
2023-03-26T01:17:15.444Z,97833.73
2023-03-26T01:20:26.931Z,97832.86
2023-03-26T01:23:01.577Z,97828.82
2023-03-26T01:25:32.720Z,97825.62
2023-03-26T01:28:01.224Z,97825.29
2023-03-26T01:30:37.236Z,97824.77
2023-03-26T01:33:16.781Z,97826.64
2023-03-26T01:36:16.562Z,97827.39
2023-03-26T01:38:53.970Z,97821.76
2023-03-26T01:41:47.155Z,97826.48
2023-03-26T01:44:36.665Z,97826.25
2023-03-26T01:47:04.795Z,97824.95
2023-03-26T01:49:33.159Z,97828.83
2023-03-26T01:52:01.306Z,97825.64
2023-03-26T01:54:30.443Z,97822.29
2023-03-26T01:57:36.571Z,97824.08
2023-03-26T02:00:18.236Z,97824.13
2023-03-26T02:03:01.999Z,97822.86
2023-03-26T02:05:39.312Z,97827.08
2023-03-26T02:08:11.984Z,97832.55
2023-03-26T02:10:44.500Z,97832.20
2023-03-26T02:13:16.186Z,97835.48
2023-03-26T02:15:59.151Z,97843.15
2023-03-26T02:18:39.131Z,97853.02
2023-03-26T02:21:10.129Z,97849.89
2023-03-26T02:23:41.425Z,97859.38
2023-03-26T02:26:11.004Z,97871.09
2023-03-26T02:28:47.159Z,97875.84
2023-03-26T02:31:21.946Z,97887.77
2023-03-26T02:33:50.434Z,97892.75
2023-03-26T02:36:24.605Z,97887.58
2023-03-26T02:38:54.397Z,97896.88
2023-03-26T02:41:22.562Z,97898.88
2023-03-26T02:43:57.163Z,97902.08
2023-03-26T02:46:33.645Z,97905.14
2023-03-26T02:49:24.961Z,97917.28
2023-03-26T02:51:56.324Z,97920.71
2023-03-26T02:54:31.352Z,97922.02
2023-03-26T02:57:09.686Z,97922.39
2023-03-26T02:59:50.553Z,97925.02
2023-03-26T03:02:34.657Z,97930.81
2023-03-26T03:05:15.727Z,97937.47
2023-03-26T03:07:46.593Z,97940.29
2023-03-26T03:10:15.708Z,97942.59
2023-03-26T03:13:04.254Z,97950.58
2023-03-26T03:15:35.215Z,97958.27
2023-03-26T03:18:04.012Z,97971.42
2023-03-26T03:20:35.355Z,97976.13
2023-03-26T03:23:05.310Z,97980.35
2023-03-26T03:25:34.833Z,97983.66
2023-03-26T03:28:08.933Z,97987.80
2023-03-26T03:30:37.037Z,97987.39
2023-03-26T03:33:20.808Z,97992.71
2023-03-26T03:35:50.223Z,98002.83
2023-03-26T03:38:20.762Z,98010.61
2023-03-26T03:40:50.398Z,98016.02
2023-03-26T03:43:19.385Z,98021.64
2023-03-26T03:46:00.704Z,98028.45
2023-03-26T03:48:38.301Z,98032.09
2023-03-26T03:51:06.871Z,98032.52
2023-03-26T03:53:55.998Z,98033.52
2023-03-26T03:56:55.279Z,98030.84
2023-03-26T03:59:47.481Z,98033.31
2023-03-26T04:02:35.234Z,98036.80
2023-03-26T04:05:06.219Z,98037.77
2023-03-26T04:07:35.778Z,98042.75
2023-03-26T04:10:08.196Z,98042.54
2023-03-26T04:12:55.412Z,98045.36
2023-03-26T04:15:37.323Z,98050.03
2023-03-26T04:18:10.413Z,98048.91
2023-03-26T04:20:42.274Z,98052.64
2023-03-26T04:23:14.322Z,98055.64
2023-03-26T04:25:50.962Z,98058.29
2023-03-26T04:28:55.047Z,98064.89
2023-03-26T04:31:31.352Z,98067.40
2023-03-26T04:34:08.448Z,98070.92
2023-03-26T04:36:46.477Z,98077.30
2023-03-26T04:39:16.509Z,98081.86
2023-03-26T04:42:03.311Z,98076.13
2023-03-26T04:44:50.919Z,98080.83
2023-03-26T04:47:19.872Z,98083.73
2023-03-26T04:49:48.786Z,98089.48
2023-03-26T04:52:17.414Z,98091.60
2023-03-26T04:54:57.624Z,98093.84
2023-03-26T04:57:32.885Z,98091.86
2023-03-26T05:00:15.534Z,98091.48
2023-03-26T05:02:50.625Z,98087.98
2023-03-26T05:05:20.352Z,98087.90
2023-03-26T05:07:48.429Z,98084.23
2023-03-26T05:10:17.518Z,98093.05
2023-03-26T05:13:04.742Z,98103.11
2023-03-26T05:15:39.667Z,98110.63
2023-03-26T05:18:16.726Z,98112.83
2023-03-26T05:20:49.166Z,98113.92
2023-03-26T05:23:19.533Z,98113.50
2023-03-26T05:25:53.625Z,98108.48
2023-03-26T05:28:25.717Z,98120.47
2023-03-26T05:31:01.375Z,98122.66
2023-03-26T05:33:32.823Z,98125.23
2023-03-26T05:36:09.730Z,98122.73
2023-03-26T05:38:42.211Z,98123.02
2023-03-26T05:41:11.300Z,98126.06
2023-03-26T05:43:45.004Z,98130.40
2023-03-26T05:46:16.970Z,98135.16
2023-03-26T05:48:46.782Z,98138.66
2023-03-26T05:51:15.855Z,98137.55
2023-03-26T05:53:52.709Z,98135.00
2023-03-26T05:56:40.753Z,98129.85
2023-03-26T05:59:29.351Z,98131.39
2023-03-26T06:02:36.575Z,98135.52
2023-03-26T06:05:49.456Z,98135.27
2023-03-26T06:08:30.300Z,98134.75
2023-03-26T06:10:59.940Z,98137.89
2023-03-26T06:13:34.125Z,98136.53
2023-03-26T06:16:03.590Z,98129.70
2023-03-26T06:18:37.961Z,98136.52
2023-03-26T06:21:32.891Z,98134.91
2023-03-26T06:24:08.302Z,98133.47
2023-03-26T06:26:46.980Z,98137.06
2023-03-26T06:29:45.980Z,98136.15
2023-03-26T06:32:41.059Z,98126.33
2023-03-26T06:35:13.807Z,98127.45
2023-03-26T06:37:42.603Z,98127.92
2023-03-26T06:40:11.941Z,98123.43
2023-03-26T06:43:20.487Z,98120.17
2023-03-26T06:46:09.716Z,98118.81
2023-03-26T06:49:04.154Z,98119.20
2023-03-26T06:52:03.109Z,98122.73
2023-03-26T06:55:00.493Z,98127.77
2023-03-26T06:57:51.777Z,98125.90
2023-03-26T07:00:42.542Z,98127.14
2023-03-26T07:03:33.915Z,98125.98
2023-03-26T07:06:38.139Z,98119.63
2023-03-26T07:09:26.445Z,98118.27
2023-03-26T07:12:33.925Z,98116.84
2023-03-26T07:15:21.394Z,98118.45
2023-03-26T07:17:52.852Z,98120.35
2023-03-26T07:20:29.642Z,98122.34
2023-03-26T07:22:58.204Z,98120.99
2023-03-26T07:25:54.868Z,98127.74
2023-03-26T07:28:42.217Z,98128.36
2023-03-26T07:32:19.028Z,98128.05
2023-03-26T07:34:52.010Z,98127.77
2023-03-26T07:37:53.383Z,98131.38
2023-03-26T07:40:57.858Z,98142.13
2023-03-26T07:43:57.563Z,98148.60
2023-03-26T07:46:53.583Z,98152.34
2023-03-26T07:49:35.500Z,98152.95
2023-03-26T07:52:24.761Z,98154.38
2023-03-26T07:55:07.854Z,98161.34
2023-03-26T07:58:15.489Z,98161.68
2023-03-26T08:01:13.358Z,98170.62
2023-03-26T08:04:23.622Z,98170.40
2023-03-26T08:07:42.657Z,98167.95
2023-03-26T08:10:27.514Z,98169.65
2023-03-26T08:13:10.440Z,98167.70
2023-03-26T08:15:47.798Z,98169.55
2023-03-26T08:18:49.472Z,98175.80
2023-03-26T08:21:23.830Z,98179.36
2023-03-26T08:24:14.336Z,98178.77
2023-03-26T08:27:01.893Z,98175.29
2023-03-26T08:29:35.432Z,98173.95
2023-03-26T08:32:04.683Z,98166.83
2023-03-26T08:34:33.213Z,98164.35
2023-03-26T08:37:01.687Z,98163.77
2023-03-26T08:39:30.702Z,98161.89
2023-03-26T08:42:10.248Z,98155.63
2023-03-26T08:45:14.847Z,98154.71
2023-03-26T08:47:59.625Z,98156.16
2023-03-26T08:50:42.864Z,98158.85
2023-03-26T08:53:23.311Z,98158.51
2023-03-26T08:56:30.464Z,98156.91
2023-03-26T08:59:04.777Z,98154.38
2023-03-26T09:01:39.381Z,98154.26
2023-03-26T09:04:54.027Z,98158.59
2023-03-26T09:07:28.292Z,98158.13
2023-03-26T09:10:15.293Z,98163.17
2023-03-26T09:13:04.632Z,98160.42
2023-03-26T09:15:49.828Z,98162.22
2023-03-26T09:18:40.707Z,98165.86
2023-03-26T09:21:31.750Z,98168.14
2023-03-26T09:24:28.247Z,98168.98
2023-03-26T09:27:24.645Z,98165.89
2023-03-26T09:30:30.794Z,98165.31
2023-03-26T09:33:56.466Z,98164.51
2023-03-26T09:36:51.026Z,98162.66
2023-03-26T09:39:37.856Z,98154.77
2023-03-26T09:42:31.958Z,98157.27
2023-03-26T09:45:00.032Z,98155.00
2023-03-26T09:47:37.634Z,98158.38
2023-03-26T09:50:16.457Z,98156.23
2023-03-26T09:52:55.208Z,98157.00
2023-03-26T09:55:36.833Z,98154.46
2023-03-26T09:58:34.536Z,98158.06
2023-03-26T10:01:41.762Z,98161.84
2023-03-26T10:04:20.951Z,98162.36
2023-03-26T10:07:01.541Z,98159.98
2023-03-26T10:09:37.739Z,98160.24
2023-03-26T10:12:27.327Z,98159.74
2023-03-26T10:14:58.664Z,98158.46
2023-03-26T10:17:36.478Z,98162.33
2023-03-26T10:20:42.979Z,98161.67
2023-03-26T10:23:19.086Z,98166.90
2023-03-26T10:26:06.318Z,98170.66
2023-03-26T10:28:48.770Z,98170.53
2023-03-26T10:31:44.656Z,98171.72
2023-03-26T10:34:39.233Z,98174.20
2023-03-26T10:37:14.474Z,98169.84
2023-03-26T10:40:02.142Z,98170.87
2023-03-26T10:43:03.692Z,98171.29
2023-03-26T10:45:41.080Z,98174.52
2023-03-26T10:48:21.600Z,98177.27
2023-03-26T10:50:54.675Z,98181.02
2023-03-26T10:53:41.768Z,98179.15
2023-03-26T10:56:15.797Z,98178.58
2023-03-26T10:58:48.489Z,98177.70
2023-03-26T11:01:50.754Z,98177.89
2023-03-26T11:04:21.057Z,98178.25
2023-03-26T11:06:51.896Z,98172.56
2023-03-26T11:09:28.628Z,98165.74
2023-03-26T11:12:25.604Z,98161.17
2023-03-26T11:15:08.004Z,98158.87
2023-03-26T11:17:40.320Z,98151.23
2023-03-26T11:20:17.367Z,98152.65
2023-03-26T11:22:54.610Z,98150.09
2023-03-26T11:25:34.679Z,98149.48
2023-03-26T11:28:04.081Z,98145.62
2023-03-26T11:30:44.633Z,98146.52
2023-03-26T11:33:18.279Z,98148.56
2023-03-26T11:35:51.513Z,98147.70
2023-03-26T11:38:45.167Z,98148.61
2023-03-26T11:41:23.139Z,98144.69
2023-03-26T11:44:28.269Z,98147.52
2023-03-26T11:46:58.983Z,98146.55
2023-03-26T11:49:28.463Z,98145.94
2023-03-26T11:51:58.651Z,98137.88
2023-03-26T11:54:28.084Z,98137.98
2023-03-26T11:57:16.691Z,98133.73
2023-03-26T12:00:04.514Z,98127.33
2023-03-26T12:02:57.675Z,98129.70
2023-03-26T12:05:31.638Z,98131.37
2023-03-26T12:08:18.725Z,98133.34
2023-03-26T12:10:51.870Z,98130.42
2023-03-26T12:13:42.084Z,98128.81
2023-03-26T12:16:17.956Z,98124.02
2023-03-26T12:18:47.638Z,98123.10
2023-03-26T12:21:18.910Z,98121.30
2023-03-26T12:24:01.460Z,98120.04
2023-03-26T12:26:42.244Z,98116.80
2023-03-26T12:29:15.959Z,98114.95
2023-03-26T12:31:58.117Z,98119.38
2023-03-26T12:34:34.934Z,98117.63
2023-03-26T12:37:04.683Z,98118.20
2023-03-26T12:40:10.665Z,98113.63
2023-03-26T12:44:48.633Z,98111.63
2023-03-26T12:45:17.886Z,98105.17
2023-03-26T12:47:58.926Z,98099.74
2023-03-26T12:50:50.397Z,98100.56
2023-03-26T12:53:32.045Z,98101.38
2023-03-26T12:56:38.826Z,98099.95
2023-03-26T12:59:49.071Z,98097.40
2023-03-26T13:02:44.089Z,98099.06
2023-03-26T13:05:40.483Z,98102.66
2023-03-26T13:08:32.929Z,98103.43
2023-03-26T13:11:40.099Z,98101.54
2023-03-26T13:14:18.900Z,98105.20
2023-03-26T13:17:34.704Z,98099.16
2023-03-26T13:20:28.149Z,98100.97
2023-03-26T13:23:17.806Z,98096.98
2023-03-26T13:26:09.720Z,98094.27
2023-03-26T13:29:24.310Z,98093.17
2023-03-26T13:32:06.016Z,98091.50
2023-03-26T13:34:38.342Z,98085.23
2023-03-26T13:37:37.249Z,98083.29
2023-03-26T13:40:54.005Z,98083.13
2023-03-26T13:43:24.877Z,98086.85
2023-03-26T13:46:05.836Z,98084.78
2023-03-26T13:48:39.273Z,98085.77
2023-03-26T13:51:17.215Z,98084.79
2023-03-26T13:53:51.063Z,98089.98
2023-03-26T13:56:29.705Z,98085.10
2023-03-26T13:59:01.560Z,98084.79
2023-03-26T14:01:36.401Z,98082.16
2023-03-26T14:04:17.957Z,98083.98
2023-03-26T14:06:48.965Z,98085.96
2023-03-26T14:09:37.136Z,98080.93
2023-03-26T14:12:21.200Z,98078.38
2023-03-26T14:14:57.967Z,98079.31
2023-03-26T14:17:42.042Z,98078.63
2023-03-26T14:20:47.868Z,98080.27
2023-03-26T14:23:39.274Z,98078.36
2023-03-26T14:26:26.716Z,98082.63
2023-03-26T14:29:23.841Z,98082.96
2023-03-26T14:32:41.200Z,98083.21
2023-03-26T14:35:28.936Z,98079.14
2023-03-26T14:38:19.564Z,98085.73
2023-03-26T14:41:06.417Z,98087.98
2023-03-26T14:43:38.732Z,98086.55
2023-03-26T14:46:19.250Z,98093.41
2023-03-26T14:49:06.441Z,98096.23
2023-03-26T14:51:42.427Z,98102.14
2023-03-26T14:54:22.115Z,98103.05
2023-03-26T14:57:17.515Z,98105.27
2023-03-26T14:59:58.127Z,98104.40
2023-03-26T15:03:00.033Z,98098.91
2023-03-26T15:06:02.084Z,98095.80
2023-03-26T15:09:09.756Z,98095.07
2023-03-26T15:12:12.410Z,98090.63
2023-03-26T15:14:51.140Z,98095.02
2023-03-26T15:17:58.176Z,98091.23
2023-03-26T15:20:50.376Z,98093.39
2023-03-26T15:23:44.367Z,98095.11
2023-03-26T15:26:45.655Z,98097.82
2023-03-26T15:29:26.188Z,98097.94
2023-03-26T15:32:22.477Z,98097.87
2023-03-26T15:35:21.809Z,98091.70
2023-03-26T15:38:06.009Z,98094.77
2023-03-26T15:40:56.669Z,98091.80
2023-03-26T15:43:28.488Z,98093.66
2023-03-26T15:46:14.212Z,98095.08
2023-03-26T15:48:50.980Z,98094.88
2023-03-26T15:51:28.656Z,98100.70
2023-03-26T15:54:01.106Z,98095.13
2023-03-26T15:56:58.374Z,98099.73
2023-03-26T16:00:15.431Z,98104.48
2023-03-26T16:02:50.569Z,98114.91
2023-03-26T16:05:24.817Z,98118.88
2023-03-26T16:07:58.960Z,98119.44
2023-03-26T16:10:47.517Z,98122.97
2023-03-26T16:13:35.440Z,98126.25
2023-03-26T16:16:07.339Z,98128.92
2023-03-26T16:18:41.277Z,98130.84
2023-03-26T16:21:30.640Z,98136.25
2023-03-26T16:24:08.267Z,98144.04
2023-03-26T16:26:40.141Z,98148.53
2023-03-26T16:29:14.986Z,98150.67
2023-03-26T16:32:23.223Z,98150.92
2023-03-26T16:35:10.286Z,98156.42
2023-03-26T16:37:46.156Z,98156.01
2023-03-26T16:40:28.823Z,98159.06
2023-03-26T16:43:06.038Z,98164.07
2023-03-26T16:45:59.985Z,98172.58
2023-03-26T16:48:41.935Z,98172.23
2023-03-26T16:51:27.930Z,98174.05
2023-03-26T16:54:05.588Z,98176.95
2023-03-26T16:56:44.178Z,98178.88
2023-03-26T16:59:38.759Z,98182.46
2023-03-26T17:02:31.809Z,98189.31
2023-03-26T17:05:21.285Z,98193.02
2023-03-26T17:07:55.909Z,98197.94
2023-03-26T17:10:43.267Z,98200.63
2023-03-26T17:13:40.910Z,98200.98
2023-03-26T17:16:12.092Z,98196.94
2023-03-26T17:18:56.918Z,98190.36
2023-03-26T17:21:45.552Z,98187.15
2023-03-26T17:24:17.894Z,98189.05
2023-03-26T17:27:18.423Z,98191.27
2023-03-26T17:30:04.204Z,98189.02
2023-03-26T17:33:19.384Z,98191.31
2023-03-26T17:35:50.092Z,98191.33
2023-03-26T17:38:25.875Z,98197.05
2023-03-26T17:40:58.960Z,98195.84
2023-03-26T17:43:43.158Z,98196.33
2023-03-26T17:46:21.117Z,98188.92
2023-03-26T17:49:01.652Z,98194.75
2023-03-26T17:51:30.056Z,98193.05
2023-03-26T17:53:59.265Z,98199.84
2023-03-26T17:56:29.338Z,98204.96
2023-03-26T17:59:11.929Z,98207.39
2023-03-26T18:01:42.448Z,98204.98
2023-03-26T18:04:25.953Z,98205.20
2023-03-26T18:07:04.185Z,98207.64
2023-03-26T18:09:56.924Z,98206.64
2023-03-26T18:12:50.873Z,98208.42
2023-03-26T18:15:36.319Z,98208.83
2023-03-26T18:18:10.914Z,98207.41
2023-03-26T18:20:42.665Z,98204.41
2023-03-26T18:23:12.710Z,98203.08
2023-03-26T18:25:42.394Z,98202.36
2023-03-26T18:28:13.026Z,98205.47
2023-03-26T18:30:47.134Z,98202.61
2023-03-26T18:33:15.910Z,98203.52
2023-03-26T18:35:46.343Z,98203.14
2023-03-26T18:38:36.027Z,98206.26
2023-03-26T18:41:08.655Z,98205.48
2023-03-26T18:43:43.860Z,98209.12
2023-03-26T18:46:14.061Z,98211.47
2023-03-26T18:48:44.342Z,98209.58
2023-03-26T18:51:12.718Z,98208.79
2023-03-26T18:53:45.310Z,98210.20
2023-03-26T18:56:35.409Z,98211.37
2023-03-26T18:59:32.870Z,98209.13
2023-03-26T19:02:07.566Z,98205.91
2023-03-26T19:04:37.300Z,98210.54
2023-03-26T19:07:06.720Z,98211.09
2023-03-26T19:09:34.812Z,98214.59
2023-03-26T19:12:18.369Z,98213.13
2023-03-26T19:15:09.967Z,98211.50
2023-03-26T19:17:47.259Z,98213.42
2023-03-26T19:20:21.138Z,98209.65
2023-03-26T19:22:49.314Z,98209.01
2023-03-26T19:25:28.432Z,98210.05
2023-03-26T19:27:56.560Z,98207.15
2023-03-26T19:30:33.273Z,98205.29
2023-03-26T19:33:15.973Z,98205.71
2023-03-26T19:35:46.287Z,98202.15
2023-03-26T19:38:26.083Z,98201.05
2023-03-26T19:40:58.060Z,98198.47
2023-03-26T19:43:26.777Z,98198.00
2023-03-26T19:46:00.446Z,98198.96
2023-03-26T19:48:45.881Z,98200.73
2023-03-26T19:51:41.752Z,98195.85
2023-03-26T19:54:16.159Z,98196.95
2023-03-26T19:56:44.465Z,98195.59
2023-03-26T19:59:14.290Z,98192.86
2023-03-26T20:01:42.616Z,98194.65
2023-03-26T20:04:11.219Z,98194.05
2023-03-26T20:06:44.132Z,98195.06
2023-03-26T20:09:14.096Z,98195.59
2023-03-26T20:11:42.603Z,98195.68
2023-03-26T20:14:21.672Z,98193.54
2023-03-26T20:16:50.239Z,98193.39
2023-03-26T20:19:19.265Z,98196.64
2023-03-26T20:21:55.778Z,98193.33
2023-03-26T20:24:24.865Z,98189.10
2023-03-26T20:26:53.166Z,98192.76
2023-03-26T20:29:22.012Z,98192.63
2023-03-26T20:31:50.209Z,98197.68
2023-03-26T20:34:23.633Z,98196.31
2023-03-26T20:36:54.480Z,98199.37
2023-03-26T20:39:26.400Z,98199.90
2023-03-26T20:41:54.785Z,98197.86
2023-03-26T20:44:23.193Z,98194.89
2023-03-26T20:46:51.692Z,98194.17
2023-03-26T20:49:22.172Z,98193.33
2023-03-26T20:51:50.547Z,98194.48
2023-03-26T20:54:25.594Z,98197.08
2023-03-26T20:56:54.406Z,98200.59
2023-03-26T20:59:27.038Z,98208.11
2023-03-26T21:01:59.491Z,98204.85
2023-03-26T21:04:28.037Z,98208.17
2023-03-26T21:07:07.040Z,98207.48
2023-03-26T21:09:41.556Z,98203.52
2023-03-26T21:12:41.490Z,98206.29
2023-03-26T21:15:22.899Z,98203.02
2023-03-26T21:17:52.656Z,98206.03
2023-03-26T21:20:21.348Z,98205.21
2023-03-26T21:23:31.168Z,98207.84
2023-03-26T21:26:09.684Z,98211.84
2023-03-26T21:28:46.788Z,98208.91
2023-03-26T21:31:24.904Z,98212.35
2023-03-26T21:33:55.312Z,98207.41
2023-03-26T21:36:24.540Z,98208.05
2023-03-26T21:38:54.836Z,98214.59
2023-03-26T21:41:23.166Z,98210.13
2023-03-26T21:43:52.398Z,98216.63
2023-03-26T21:46:21.038Z,98217.15
2023-03-26T21:48:54.252Z,98214.75
2023-03-26T21:51:26.393Z,98213.11
2023-03-26T21:54:01.519Z,98212.80
2023-03-26T21:56:33.491Z,98208.52
2023-03-26T21:59:37.630Z,98206.64
2023-03-26T22:02:19.154Z,98204.09
2023-03-26T22:05:06.165Z,98206.63
2023-03-26T22:07:54.510Z,98208.98
2023-03-26T22:10:23.315Z,98210.41
2023-03-26T22:12:53.993Z,98205.77
2023-03-26T22:15:22.221Z,98207.19
2023-03-26T22:17:54.252Z,98204.03
2023-03-26T22:20:25.660Z,98205.63
2023-03-26T22:22:55.437Z,98202.89
2023-03-26T22:25:23.559Z,98202.23
2023-03-26T22:27:58.160Z,98204.72
2023-03-26T22:30:27.350Z,98199.56
2023-03-26T22:32:56.039Z,98196.20
2023-03-26T22:35:24.709Z,98195.96
2023-03-26T22:37:52.944Z,98198.16
2023-03-26T22:40:29.790Z,98196.42
2023-03-26T22:42:58.438Z,98195.67
2023-03-26T22:45:30.252Z,98193.82
2023-03-26T22:48:03.535Z,98193.08
2023-03-26T22:50:33.006Z,98196.36
2023-03-26T22:53:02.427Z,98195.63
2023-03-26T22:55:30.619Z,98197.90
2023-03-26T22:58:05.260Z,98193.02
2023-03-26T23:00:34.907Z,98196.98
2023-03-26T23:03:04.792Z,98192.95
2023-03-26T23:05:34.075Z,98188.69
2023-03-26T23:08:03.100Z,98188.83
2023-03-26T23:10:31.584Z,98185.86
2023-03-26T23:13:00.877Z,98189.07
2023-03-26T23:15:30.628Z,98184.50
2023-03-26T23:17:59.573Z,98183.92
2023-03-26T23:20:29.337Z,98179.49
2023-03-26T23:22:57.461Z,98177.33
2023-03-26T23:25:33.160Z,98174.23
2023-03-26T23:28:03.523Z,98180.41
2023-03-26T23:30:32.199Z,98181.17
2023-03-26T23:33:01.750Z,98181.04
2023-03-26T23:35:30.306Z,98179.40
2023-03-26T23:38:02.339Z,98178.77
2023-03-26T23:40:30.486Z,98178.53
2023-03-26T23:42:58.556Z,98178.80
2023-03-26T23:45:27.240Z,98180.09
2023-03-26T23:47:56.336Z,98175.81
2023-03-26T23:50:31.502Z,98171.34
2023-03-26T23:53:00.195Z,98170.48
2023-03-26T23:55:28.335Z,98170.38
2023-03-26T23:57:56.436Z,98175.67
